Terminal Aerodrome Forecast
Issued by NWS Sioux Falls, SD

Home | Current Version | Previous Version | Graphics & Text | Print | Product List | Glossary On
Versions: 1 2 3 4 5 6 7 8 9 10 11 12 13 14 15 16
000
FTUS43 KFSD 121120
TAFHON
TAF
KHON 121120Z 1212/1312 25006KT P6SM OVC035
     FM121700 26008KT P6SM SCT250
     FM130800 29013KT P6SM BKN250
     FM131100 31019G27KT P6SM BKN200=

USA.gov is the U.S. government's official web portal to all federal, state and local government web resources and services.